createdAt,value
2018-04-24T00:02:02.727Z,14.00
2018-04-24T00:04:30.198Z,13.90
2018-04-24T00:06:57.667Z,13.90
2018-04-24T00:09:25.088Z,13.90
2018-04-24T00:11:52.615Z,13.90
2018-04-24T00:14:20.026Z,13.80
2018-04-24T00:16:47.454Z,13.80
2018-04-24T00:19:14.923Z,13.80
2018-04-24T00:21:42.350Z,13.70
2018-04-24T00:24:09.862Z,13.70
2018-04-24T00:26:37.294Z,13.70
2018-04-24T00:29:04.799Z,13.70
2018-04-24T00:31:32.275Z,13.60
2018-04-24T00:33:59.739Z,13.60
2018-04-24T00:36:27.153Z,13.60
2018-04-24T00:38:55.346Z,13.50
2018-04-24T00:41:23.067Z,13.50
2018-04-24T00:43:50.539Z,13.50
2018-04-24T00:46:17.957Z,13.50
2018-04-24T00:48:45.559Z,13.50
2018-04-24T00:51:13.740Z,13.40
2018-04-24T00:53:41.957Z,13.30
2018-04-24T00:56:09.423Z,13.30
2018-04-24T00:58:36.851Z,13.30
2018-04-24T01:01:04.267Z,13.30
2018-04-24T01:03:31.686Z,13.20
2018-04-24T01:05:59.914Z,13.20
2018-04-24T01:08:27.351Z,13.10
2018-04-24T01:10:54.770Z,13.20
2018-04-24T01:13:22.223Z,13.10
2018-04-24T01:15:49.698Z,13.10
2018-04-24T01:18:17.115Z,13.10
2018-04-24T01:20:44.638Z,13.10
2018-04-24T01:23:12.105Z,13.10
2018-04-24T01:25:39.531Z,13.00
2018-04-24T01:28:07.050Z,13.00
2018-04-24T01:30:34.478Z,13.00
2018-04-24T01:33:02.703Z,12.90
2018-04-24T01:35:30.129Z,12.80
2018-04-24T01:37:57.650Z,12.80
2018-04-24T01:40:25.078Z,12.80
2018-04-24T01:42:52.587Z,12.80
2018-04-24T01:45:20.055Z,12.70
2018-04-24T01:47:47.471Z,12.70
2018-04-24T01:50:15.813Z,12.60
2018-04-24T01:52:43.214Z,12.60
2018-04-24T01:55:10.654Z,12.50
2018-04-24T01:57:38.118Z,12.50
2018-04-24T02:00:05.551Z,12.50
2018-04-24T02:02:33.726Z,12.40
2018-04-24T02:05:01.155Z,12.40
2018-04-24T02:07:28.612Z,12.40
2018-04-24T02:09:56.034Z,12.30
2018-04-24T02:12:23.554Z,12.30
2018-04-24T02:14:50.993Z,12.30
2018-04-24T02:17:19.213Z,12.20
2018-04-24T02:19:46.625Z,12.20
2018-04-24T02:22:14.050Z,12.20
2018-04-24T02:24:41.474Z,12.20
2018-04-24T02:27:08.903Z,12.20
2018-04-24T02:29:36.354Z,12.20
2018-04-24T02:32:03.822Z,12.20
2018-04-24T02:34:31.298Z,12.20
2018-04-24T02:36:58.767Z,12.20
2018-04-24T02:39:26.234Z,12.10
2018-04-24T02:41:53.654Z,12.10
2018-04-24T02:44:21.179Z,12.10
2018-04-24T02:46:48.603Z,12.10
2018-04-24T02:49:16.027Z,12.10
2018-04-24T02:51:43.480Z,12.10
2018-04-24T02:54:10.951Z,12.10
2018-04-24T02:56:38.391Z,12.00
2018-04-24T02:59:06.571Z,11.90
2018-04-24T03:01:34.795Z,11.90
2018-04-24T03:04:03.091Z,11.90
2018-04-24T03:06:30.554Z,11.80
2018-04-24T03:08:58.878Z,11.80
2018-04-24T03:11:26.411Z,11.80
2018-04-24T03:13:53.836Z,11.70
2018-04-24T03:16:21.249Z,11.70
2018-04-24T03:18:48.729Z,11.70
2018-04-24T03:21:16.150Z,11.70
2018-04-24T03:23:44.333Z,11.70
2018-04-24T03:26:11.848Z,11.60
2018-04-24T03:28:39.263Z,11.60
2018-04-24T03:31:06.694Z,11.60
2018-04-24T03:33:34.154Z,11.60
2018-04-24T03:36:01.623Z,11.60
2018-04-24T03:38:29.092Z,11.60
2018-04-24T03:40:56.515Z,11.60
2018-04-24T03:43:24.034Z,11.50
2018-04-24T03:45:51.455Z,11.50
2018-04-24T03:48:20.386Z,11.50
2018-04-24T03:50:48.598Z,11.50
2018-04-24T03:53:16.046Z,11.50
2018-04-24T03:55:44.222Z,11.50
2018-04-24T03:58:12.414Z,11.40
2018-04-24T04:00:40.622Z,11.40
2018-04-24T04:03:08.064Z,11.30
2018-04-24T04:05:35.473Z,11.30
2018-04-24T04:08:03.091Z,11.20
2018-04-24T04:10:30.503Z,11.20
2018-04-24T04:12:57.935Z,11.20
2018-04-24T04:15:26.114Z,11.10
2018-04-24T04:18:05.307Z,11.10
2018-04-24T04:20:44.859Z,11.10
2018-04-24T04:23:25.088Z,11.10
2018-04-24T04:25:52.608Z,11.10
2018-04-24T04:28:20.030Z,11.10
2018-04-24T04:30:47.547Z,11.00
2018-04-24T04:33:15.022Z,11.00
2018-04-24T04:35:42.478Z,11.00
2018-04-24T04:38:09.950Z,11.00
2018-04-24T04:40:37.422Z,11.00
2018-04-24T04:43:04.858Z,11.00
2018-04-24T04:45:32.364Z,11.00
2018-04-24T04:47:59.789Z,11.10
2018-04-24T04:50:27.218Z,11.10
2018-04-24T04:52:54.646Z,11.10
2018-04-24T04:55:22.855Z,11.10
2018-04-24T04:57:50.326Z,11.10
2018-04-24T05:00:17.799Z,11.10
2018-04-24T05:02:45.266Z,11.10
2018-04-24T05:05:12.696Z,11.20
2018-04-24T05:07:40.212Z,11.20
2018-04-24T05:10:07.677Z,11.30
2018-04-24T05:12:35.848Z,11.40
2018-04-24T05:15:04.030Z,11.40
2018-04-24T05:17:32.226Z,11.50
2018-04-24T05:19:59.718Z,11.50
2018-04-24T05:22:27.183Z,11.50
2018-04-24T05:24:54.608Z,11.60
2018-04-24T05:27:22.118Z,11.60
2018-04-24T05:29:49.590Z,11.70
2018-04-24T05:32:17.060Z,11.80
2018-04-24T05:34:44.476Z,11.80
2018-04-24T05:37:11.999Z,11.90
2018-04-24T05:39:39.414Z,11.90
2018-04-24T05:42:07.612Z,12.00
2018-04-24T05:44:35.798Z,12.00
2018-04-24T05:47:03.221Z,12.00
2018-04-24T05:49:30.671Z,12.10
2018-04-24T05:51:58.145Z,12.10
2018-04-24T05:54:25.615Z,12.20
2018-04-24T05:56:53.043Z,12.30
2018-04-24T05:59:20.466Z,12.40
2018-04-24T06:01:47.883Z,12.40
2018-04-24T06:04:16.071Z,12.60
2018-04-24T06:06:43.587Z,12.60
2018-04-24T06:09:11.054Z,12.70
2018-04-24T06:11:38.527Z,12.80
2018-04-24T06:14:05.949Z,12.80
2018-04-24T06:16:33.465Z,12.90
2018-04-24T06:19:00.886Z,13.10
2018-04-24T06:21:29.063Z,13.20
2018-04-24T06:23:56.485Z,13.10
2018-04-24T06:26:23.951Z,13.20
2018-04-24T06:28:51.378Z,13.30
2018-04-24T06:31:20.306Z,13.50
2018-04-24T06:33:48.499Z,13.60
2018-04-24T06:36:15.915Z,13.60
2018-04-24T06:38:43.347Z,13.70
2018-04-24T06:41:10.822Z,13.80
2018-04-24T06:43:38.250Z,13.90
2018-04-24T06:46:05.762Z,14.00
2018-04-24T06:48:33.185Z,14.00
2018-04-24T06:51:00.607Z,14.10
2018-04-24T06:53:28.031Z,14.20
2018-04-24T06:55:56.218Z,14.30
2018-04-24T06:58:23.730Z,14.30
2018-04-24T07:00:51.264Z,14.30
2018-04-24T07:03:18.671Z,14.40
2018-04-24T07:05:46.099Z,14.40
2018-04-24T07:08:14.294Z,14.60
2018-04-24T07:10:42.479Z,14.70
2018-04-24T07:13:10.675Z,14.80
2018-04-24T07:15:38.854Z,14.80
2018-04-24T07:18:07.046Z,14.90
2018-04-24T07:20:35.259Z,14.90
2018-04-24T07:23:02.738Z,14.90
2018-04-24T07:25:30.191Z,15.00
2018-04-24T07:27:57.617Z,15.10
2018-04-24T07:30:25.131Z,15.20
2018-04-24T07:32:52.602Z,15.20
2018-04-24T07:35:20.076Z,15.30
2018-04-24T07:37:47.501Z,15.30
2018-04-24T07:40:14.918Z,15.50
2018-04-24T07:42:42.387Z,15.50
2018-04-24T07:45:09.806Z,15.60
2018-04-24T07:47:38.760Z,15.80
2018-04-24T07:50:06.222Z,15.80
2018-04-24T07:52:33.645Z,15.90
2018-04-24T07:55:01.830Z,16.00
2018-04-24T07:57:29.349Z,16.00
2018-04-24T07:59:56.819Z,16.00
2018-04-24T08:02:24.290Z,16.10
2018-04-24T08:04:51.759Z,16.20
2018-04-24T08:07:19.230Z,16.20
2018-04-24T08:09:46.710Z,16.30
2018-04-24T08:12:14.178Z,16.40
2018-04-24T08:14:41.602Z,16.30
2018-04-24T08:17:09.111Z,16.40
2018-04-24T08:19:36.538Z,16.40
2018-04-24T08:22:04.721Z,16.40
2018-04-24T08:24:32.920Z,16.50
2018-04-24T08:27:00.430Z,16.40
2018-04-24T08:29:27.863Z,16.50
2018-04-24T08:31:56.042Z,16.60
2018-04-24T08:34:23.475Z,16.60
2018-04-24T08:36:50.922Z,16.70
2018-04-24T08:39:18.395Z,16.80
2018-04-24T08:41:45.809Z,16.90
2018-04-24T08:44:13.240Z,16.90
2018-04-24T08:46:40.653Z,16.90
2018-04-24T08:49:08.168Z,17.00
2018-04-24T08:51:35.646Z,17.00
2018-04-24T08:54:03.319Z,17.10
2018-04-24T08:56:30.855Z,17.10
2018-04-24T08:58:58.211Z,17.20
2018-04-24T09:01:27.138Z,17.30
2018-04-24T09:03:55.326Z,17.40
2018-04-24T09:06:22.815Z,17.40
2018-04-24T09:08:50.237Z,17.50
2018-04-24T09:11:17.751Z,17.60
2018-04-24T09:13:45.176Z,17.70
2018-04-24T09:16:14.110Z,17.90
2018-04-24T09:18:41.545Z,17.90
2018-04-24T09:21:09.063Z,17.90
2018-04-24T09:23:36.495Z,18.00
2018-04-24T09:26:03.910Z,18.10
2018-04-24T09:28:31.367Z,18.10
2018-04-24T09:30:58.787Z,18.10
2018-04-24T09:33:26.293Z,18.20
2018-04-24T09:35:53.660Z,18.30
2018-04-24T09:38:21.846Z,18.30
2018-04-24T09:40:50.047Z,18.40
2018-04-24T09:43:17.474Z,18.30
2018-04-24T09:45:44.991Z,18.40
2018-04-24T09:48:12.462Z,18.60
2018-04-24T09:50:39.931Z,18.50
2018-04-24T09:53:07.412Z,18.50
2018-04-24T09:55:34.870Z,18.50
2018-04-24T09:58:02.299Z,18.50
2018-04-24T10:00:35.331Z,18.60
2018-04-24T10:03:02.811Z,18.70
2018-04-24T10:05:30.226Z,18.70
2018-04-24T10:07:57.747Z,18.80
2018-04-24T10:10:25.223Z,18.90
2018-04-24T10:12:52.643Z,19.20
2018-04-24T10:15:20.883Z,19.50
2018-04-24T10:17:48.306Z,19.50
2018-04-24T10:20:15.814Z,19.60
2018-04-24T10:22:43.290Z,19.70
2018-04-24T10:25:10.722Z,19.70
2018-04-24T10:27:38.228Z,19.70
2018-04-24T10:30:05.698Z,19.90
2018-04-24T10:32:33.307Z,20.10
2018-04-24T10:35:00.839Z,20.40
2018-04-24T10:37:28.262Z,20.70
2018-04-24T10:39:57.186Z,20.80
2018-04-24T10:42:25.378Z,20.90
2018-04-24T10:44:53.570Z,20.70
2018-04-24T10:47:21.054Z,20.70
2018-04-24T10:49:48.491Z,20.80
2018-04-24T10:52:15.910Z,20.90
2018-04-24T10:54:43.346Z,20.90
2018-04-24T10:57:11.592Z,21.20
2018-04-24T10:59:38.988Z,21.20
2018-04-24T11:02:06.596Z,21.60
2018-04-24T11:04:34.022Z,21.80
2018-04-24T11:07:01.538Z,22.20
2018-04-24T11:09:28.966Z,22.20
2018-04-24T11:11:57.242Z,21.80
2018-04-24T11:14:24.578Z,21.80
2018-04-24T11:16:52.003Z,21.70
2018-04-24T11:19:20.217Z,21.60
2018-04-24T11:21:47.683Z,21.60
2018-04-24T11:24:15.154Z,21.60
2018-04-24T11:26:42.675Z,21.60
2018-04-24T11:29:10.046Z,21.70
2018-04-24T11:31:37.474Z,22.00
2018-04-24T11:34:04.906Z,22.30
2018-04-24T11:36:33.495Z,22.40
2018-04-24T11:39:00.902Z,22.40
2018-04-24T11:41:28.395Z,22.40
2018-04-24T11:43:55.817Z,22.50
2018-04-24T11:46:23.991Z,22.80
2018-04-24T11:48:52.209Z,22.90
2018-04-24T11:51:19.679Z,22.90
2018-04-24T11:53:47.147Z,22.90
2018-04-24T11:56:14.623Z,23.10
2018-04-24T11:58:42.042Z,23.20
2018-04-24T12:01:09.459Z,23.50
2018-04-24T12:03:36.934Z,23.70
2018-04-24T12:06:04.395Z,23.70
2018-04-24T12:08:31.831Z,23.90
2018-04-24T12:10:59.343Z,24.10
2018-04-24T12:13:26.806Z,24.30
2018-04-24T12:15:54.276Z,24.50
2018-04-24T12:18:21.756Z,24.60
2018-04-24T12:20:49.178Z,24.50
2018-04-24T12:23:16.594Z,24.50
2018-04-24T12:25:44.023Z,24.60
2018-04-24T12:28:12.218Z,24.50
2018-04-24T12:30:40.454Z,24.70
2018-04-24T12:33:07.879Z,24.70
2018-04-24T12:35:36.066Z,24.70
2018-04-24T12:38:04.254Z,24.80
2018-04-24T12:40:32.543Z,25.00
2018-04-24T12:43:00.721Z,25.20
2018-04-24T12:45:28.911Z,25.50
2018-04-24T12:47:57.094Z,25.90
2018-04-24T12:50:25.306Z,25.80
2018-04-24T12:52:52.847Z,25.80
2018-04-24T12:55:21.043Z,25.80
2018-04-24T12:57:49.304Z,25.60
2018-04-24T13:00:17.431Z,25.70
2018-04-24T13:02:44.848Z,25.70
2018-04-24T13:05:12.394Z,25.80
2018-04-24T13:07:39.851Z,25.70
2018-04-24T13:10:07.273Z,25.90
2018-04-24T13:12:35.454Z,25.60
2018-04-24T13:15:02.978Z,25.60
2018-04-24T13:17:30.414Z,25.70
2018-04-24T13:19:58.615Z,26.10
2018-04-24T13:22:26.798Z,26.40
2018-04-24T13:24:54.981Z,26.50
2018-04-24T13:27:23.190Z,26.80
2018-04-24T13:29:50.614Z,26.80
2018-04-24T13:32:18.851Z,27.00
2018-04-24T13:34:46.321Z,27.00
2018-04-24T13:37:13.757Z,26.90
2018-04-24T13:39:41.170Z,26.90
2018-04-24T13:42:08.668Z,26.90
2018-04-24T13:44:36.065Z,26.70
2018-04-24T13:47:04.254Z,26.30
2018-04-24T13:49:32.450Z,26.50
2018-04-24T13:52:00.634Z,26.60
2018-04-24T13:54:28.829Z,26.60
2018-04-24T13:56:56.315Z,26.50
2018-04-24T13:59:23.742Z,26.60
2018-04-24T14:01:51.154Z,26.70
2018-04-24T14:04:18.578Z,26.80
2018-04-24T14:06:45.998Z,27.10
2018-04-24T14:09:13.418Z,27.20
2018-04-24T14:11:40.930Z,27.50
2018-04-24T14:14:08.359Z,27.70
2018-04-24T14:16:35.879Z,27.70
2018-04-24T14:19:03.447Z,27.70
2018-04-24T14:21:30.932Z,27.60
2018-04-24T14:23:58.380Z,27.60
2018-04-24T14:26:25.850Z,27.50
2018-04-24T14:28:53.327Z,27.50
2018-04-24T14:31:20.798Z,27.50
2018-04-24T14:33:48.212Z,27.50
2018-04-24T14:36:15.634Z,27.30
2018-04-24T14:38:43.059Z,27.50
2018-04-24T14:41:10.571Z,27.50
2018-04-24T14:43:38.039Z,27.40
2018-04-24T14:46:05.467Z,27.40
2018-04-24T14:48:32.991Z,27.30
2018-04-24T14:51:00.419Z,27.00
2018-04-24T14:53:28.642Z,27.20
2018-04-24T14:55:56.073Z,27.20
2018-04-24T14:58:24.296Z,27.00
2018-04-24T15:00:51.715Z,26.90
2018-04-24T15:03:19.231Z,26.60
2018-04-24T15:05:46.702Z,26.40
2018-04-24T15:08:14.127Z,26.00
2018-04-24T15:10:41.543Z,25.70
2018-04-24T15:13:08.969Z,25.40
2018-04-24T15:15:36.391Z,25.20
2018-04-24T15:18:03.813Z,25.10
2018-04-24T15:20:32.222Z,25.20
2018-04-24T15:22:59.602Z,25.20
2018-04-24T15:25:27.094Z,25.20
2018-04-24T15:27:54.522Z,25.30
2018-04-24T15:30:22.720Z,25.30
2018-04-24T15:32:50.204Z,25.20
2018-04-24T15:35:17.630Z,25.20
2018-04-24T15:37:45.138Z,25.20
2018-04-24T15:40:12.562Z,25.10
2018-04-24T15:42:39.983Z,24.80
2018-04-24T15:45:07.407Z,24.70
2018-04-24T15:47:34.931Z,24.30
2018-04-24T15:50:02.371Z,24.20
2018-04-24T15:52:30.548Z,24.10
2018-04-24T15:54:58.745Z,24.00
2018-04-24T15:57:26.930Z,23.90
2018-04-24T15:59:55.111Z,23.70
2018-04-24T16:02:23.294Z,23.60
2018-04-24T16:04:51.507Z,23.60
2018-04-24T16:07:18.982Z,23.50
2018-04-24T16:09:46.447Z,23.50
2018-04-24T16:12:13.876Z,23.40
2018-04-24T16:14:41.382Z,23.30
2018-04-24T16:17:08.855Z,23.10
2018-04-24T16:19:36.288Z,23.10
2018-04-24T16:22:03.795Z,23.00
2018-04-24T16:24:31.263Z,22.80
2018-04-24T16:26:58.734Z,22.80
2018-04-24T16:29:26.211Z,22.70
2018-04-24T16:31:53.643Z,22.60
2018-04-24T16:34:21.826Z,22.40
2018-04-24T16:36:50.022Z,22.40
2018-04-24T16:39:18.299Z,22.20
2018-04-24T16:41:45.692Z,22.20
2018-04-24T16:44:13.874Z,22.00
2018-04-24T16:46:42.083Z,22.00
2018-04-24T16:49:09.499Z,22.00
2018-04-24T16:51:37.043Z,22.00
2018-04-24T16:54:04.446Z,21.90
2018-04-24T16:56:31.959Z,21.80
2018-04-24T16:59:00.282Z,21.70
2018-04-24T17:01:27.720Z,21.70
2018-04-24T17:03:55.134Z,21.60
2018-04-24T17:06:22.617Z,21.60
2018-04-24T17:08:50.095Z,21.50
2018-04-24T17:11:17.613Z,21.50
2018-04-24T17:13:45.010Z,21.30
2018-04-24T17:16:12.442Z,21.30
2018-04-24T17:18:39.911Z,21.30
2018-04-24T17:21:07.334Z,21.10
2018-04-24T17:23:34.750Z,21.00
2018-04-24T17:26:02.314Z,21.00
2018-04-24T17:28:29.742Z,20.90
2018-04-24T17:30:57.191Z,20.80
2018-04-24T17:33:24.623Z,20.80
2018-04-24T17:35:52.050Z,20.80
2018-04-24T17:38:19.562Z,20.80
2018-04-24T17:40:47.001Z,20.70
2018-04-24T17:43:14.500Z,20.60
2018-04-24T17:45:41.930Z,20.60
2018-04-24T17:48:09.439Z,20.50
2018-04-24T17:50:36.871Z,20.40
2018-04-24T17:53:04.288Z,20.40
2018-04-24T17:55:31.786Z,20.30
2018-04-24T17:57:59.206Z,20.30
2018-04-24T18:00:26.626Z,20.20
2018-04-24T18:02:54.059Z,20.10
2018-04-24T18:05:21.526Z,20.00
2018-04-24T18:07:48.950Z,20.00
2018-04-24T18:10:16.370Z,20.00
2018-04-24T18:12:43.839Z,19.90
2018-04-24T18:15:11.259Z,19.90
2018-04-24T18:17:38.685Z,19.80
2018-04-24T18:20:06.117Z,19.70
2018-04-24T18:22:33.563Z,19.60
2018-04-24T18:25:00.985Z,19.50
2018-04-24T18:27:28.553Z,19.50
2018-04-24T18:29:55.954Z,19.40
2018-04-24T18:32:23.486Z,19.30
2018-04-24T18:34:50.960Z,19.30
2018-04-24T18:37:18.386Z,19.20
2018-04-24T18:39:45.803Z,19.10
2018-04-24T18:42:13.270Z,19.00
2018-04-24T18:44:40.682Z,19.00
2018-04-24T18:47:08.186Z,19.00
2018-04-24T18:49:36.394Z,18.90
2018-04-24T18:52:03.825Z,18.90
2018-04-24T18:54:31.242Z,18.80
2018-04-24T18:56:58.702Z,18.80
2018-04-24T18:59:26.211Z,18.70
2018-04-24T19:01:54.310Z,18.60
2018-04-24T19:04:21.822Z,18.60
2018-04-24T19:06:49.251Z,18.50
2018-04-24T19:09:16.667Z,18.50
2018-04-24T19:11:44.089Z,18.40
2018-04-24T19:14:17.423Z,18.30
2018-04-24T19:16:45.619Z,18.20
2018-04-24T19:19:18.952Z,18.20
2018-04-24T19:21:46.403Z,18.20
2018-04-24T19:24:19.635Z,18.20
2018-04-24T19:26:47.062Z,18.20
2018-04-24T19:29:15.250Z,18.10
2018-04-24T19:31:49.251Z,18.10
2018-04-24T19:34:16.690Z,18.10
2018-04-24T19:36:44.139Z,18.10
2018-04-24T19:39:17.247Z,18.00
2018-04-24T19:41:46.622Z,17.90
2018-04-24T19:44:14.801Z,17.80
2018-04-24T19:46:43.004Z,17.70
2018-04-24T19:49:17.067Z,17.70
2018-04-24T19:51:45.230Z,17.60
2018-04-24T19:54:12.699Z,17.60
2018-04-24T19:56:40.191Z,17.60
2018-04-24T19:59:07.659Z,17.50
2018-04-24T20:01:35.106Z,17.40
2018-04-24T20:04:02.538Z,17.40
2018-04-24T20:06:29.970Z,17.30
2018-04-24T20:08:58.402Z,17.30
2018-04-24T20:11:25.852Z,17.20
2018-04-24T20:13:53.271Z,17.20
2018-04-24T20:16:20.693Z,17.10
2018-04-24T20:18:48.133Z,17.00
2018-04-24T20:21:15.583Z,17.00
2018-04-24T20:23:43.028Z,16.90
2018-04-24T20:26:10.479Z,16.90
2018-04-24T20:28:37.914Z,16.80
2018-04-24T20:31:05.376Z,16.80
2018-04-24T20:33:32.811Z,16.80
2018-04-24T20:36:01.006Z,16.60
2018-04-24T20:38:28.431Z,16.60
2018-04-24T20:40:55.955Z,16.60
2018-04-24T20:43:23.375Z,16.60
2018-04-24T20:45:50.809Z,16.50
2018-04-24T20:48:18.279Z,16.50
2018-04-24T20:50:45.720Z,16.40
2018-04-24T20:53:13.983Z,16.30
2018-04-24T20:55:41.346Z,16.30
2018-04-24T20:58:08.775Z,16.30
2018-04-24T21:00:36.212Z,16.30
2018-04-24T21:03:03.662Z,16.20
2018-04-24T21:05:31.090Z,16.20
2018-04-24T21:07:58.535Z,16.10
2018-04-24T21:10:25.963Z,16.10
2018-04-24T21:12:53.388Z,16.00
2018-04-24T21:15:20.853Z,16.00
2018-04-24T21:17:48.283Z,16.00
2018-04-24T21:20:16.462Z,15.90
2018-04-24T21:22:43.882Z,15.90
2018-04-24T21:25:11.305Z,15.90
2018-04-24T21:27:39.502Z,15.80
2018-04-24T21:30:07.695Z,15.80
2018-04-24T21:32:35.886Z,15.70
2018-04-24T21:35:03.372Z,15.70
2018-04-24T21:37:30.734Z,15.60
2018-04-24T21:39:58.214Z,15.60
2018-04-24T21:42:25.683Z,15.60
2018-04-24T21:44:53.113Z,15.60
2018-04-24T21:47:21.309Z,15.60
2018-04-24T21:49:49.495Z,15.50
2018-04-24T21:52:17.721Z,15.50
2018-04-24T21:54:45.187Z,15.50
2018-04-24T21:57:12.610Z,15.40
2018-04-24T21:59:40.115Z,15.40
2018-04-24T22:02:07.538Z,15.40
2018-04-24T22:04:35.059Z,15.40
2018-04-24T22:07:02.483Z,15.30
2018-04-24T22:09:29.994Z,15.30
2018-04-24T22:11:57.463Z,15.20
2018-04-24T22:14:24.936Z,15.20
2018-04-24T22:16:52.515Z,15.10
2018-04-24T22:19:19.930Z,15.10
2018-04-24T22:21:47.360Z,15.10
2018-04-24T22:24:14.784Z,15.00
2018-04-24T22:26:42.999Z,15.00
2018-04-24T22:29:10.414Z,15.00
2018-04-24T22:31:37.945Z,15.00
2018-04-24T22:34:05.414Z,15.00
2018-04-24T22:36:32.842Z,14.90
2018-04-24T22:39:00.258Z,14.90
2018-04-24T22:41:27.682Z,14.90
2018-04-24T22:43:55.865Z,14.80
2018-04-24T22:46:23.294Z,14.80
2018-04-24T22:48:50.719Z,14.80
2018-04-24T22:51:18.934Z,14.80
2018-04-24T22:53:46.403Z,14.80
2018-04-24T22:56:13.831Z,14.80
2018-04-24T22:58:41.251Z,14.80
2018-04-24T23:01:08.707Z,14.70
2018-04-24T23:03:36.183Z,14.80
2018-04-24T23:06:04.207Z,14.80
2018-04-24T23:08:31.730Z,14.70
2018-04-24T23:11:10.914Z,14.70
2018-04-24T23:13:50.138Z,14.70
2018-04-24T23:16:29.574Z,14.70
2018-04-24T23:19:09.950Z,14.60
2018-04-24T23:21:36.875Z,14.60
2018-04-24T23:24:05.095Z,14.60
2018-04-24T23:26:32.514Z,14.50
2018-04-24T23:29:00.042Z,14.50
2018-04-24T23:31:27.458Z,14.50
2018-04-24T23:33:55.692Z,14.40
2018-04-24T23:36:23.108Z,14.40
2018-04-24T23:38:50.627Z,14.40
2018-04-24T23:41:18.046Z,14.30
2018-04-24T23:43:45.474Z,14.30
2018-04-24T23:46:12.886Z,14.20
2018-04-24T23:48:40.314Z,14.20
2018-04-24T23:51:07.778Z,14.20
2018-04-24T23:53:35.248Z,14.10
2018-04-24T23:56:02.672Z,14.00
2018-04-24T23:58:30.191Z,14.10
